Time;durP1;ratioP1;P1;durP2;ratioP2;P2;SDS_P1;SDS_P2;PMS_P1;PMS_P2;Temp;Humidity;BMP_temperature;BMP_pressure;BME280_temperature;BME280_humidity;BME280_pressure;Samples;Min_cycle;Max_cycle;Signal;HPM_P1;HPM_P2
2022/01/08 00:00:24;;;;;;;;;;;;;;;7.03;77.30;100114.41;5044821;28;19917;-85
2022/01/08 00:02:51;;;;;;;;;;;;;;;7.04;77.17;100110.88;5045753;28;19913;-85
2022/01/08 00:05:17;;;;;;;;;;;;;;;7.11;77.29;100099.56;5045867;28;19920;-85
2022/01/08 00:07:42;;;;;;;;;;;;;;;7.10;77.04;100102.19;5045098;28;20438;-85
2022/01/08 00:10:07;;;;;;;;;;;;;;;7.02;76.93;100088.16;5045880;28;20066;-85
2022/01/08 00:12:33;;;;;;;;;;;;;;;7.06;77.11;100090.81;5045766;28;19909;-85
2022/01/08 00:14:58;;;;;;;;;;;;;;;7.01;76.90;100091.66;5045254;28;19919;-85
2022/01/08 00:17:23;;;;;;;;;;;;;;;7.07;77.14;100086.44;5048229;28;19916;-85
2022/01/08 00:19:52;;;;;;;;;;;;;;;7.07;77.18;100089.06;5039925;28;19912;-86
2022/01/08 00:22:18;;;;;;;;;;;;;;;7.10;77.27;100082.06;5029419;28;19913;-85
2022/01/08 00:24:43;;;;;;;;;;;;;;;7.17;76.62;100086.50;5043462;28;19947;-85
2022/01/08 00:27:09;;;;;;;;;;;;;;;7.08;77.19;100088.19;5048605;28;19912;-85
2022/01/08 00:29:34;;;;;;;;;;;;;;;7.04;77.63;100095.16;5049609;28;19912;-85
2022/01/08 00:31:59;;;;;;;;;;;;;;;7.08;77.26;100093.44;5028142;28;19916;-85
2022/01/08 00:34:25;;;;;;;;;;;;;;;7.09;77.30;100095.19;5029062;28;19917;-85
2022/01/08 00:36:50;;;;;;;;;;;;;;;7.06;76.61;100085.56;5048942;28;19913;-85
2022/01/08 00:39:16;;;;;;;;;;;;;;;7.12;76.42;100082.97;5041159;28;19932;-85
2022/01/08 00:41:41;;;;;;;;;;;;;;;6.99;77.28;100078.53;5028425;28;19944;-85
2022/01/08 00:44:06;;;;;;;;;;;;;;;7.06;76.90;100069.81;5046195;28;20020;-85
2022/01/08 00:46:32;;;;;;;;;;;;;;;6.99;77.23;100066.28;5048469;28;20636;-85
2022/01/08 00:48:57;;;;;;;;;;;;;;;6.85;77.77;100065.31;5041510;28;19916;-84
2022/01/08 00:51:22;;;;;;;;;;;;;;;6.98;77.65;100064.53;5035988;28;19917;-84
2022/01/08 00:53:48;;;;;;;;;;;;;;;6.93;77.51;100052.25;5040686;28;20228;-84
2022/01/08 00:56:14;;;;;;;;;;;;;;;6.76;78.15;100054.78;5028595;28;19943;-84
2022/01/08 00:58:40;;;;;;;;;;;;;;;6.90;78.19;100057.47;5033051;28;19916;-85
2022/01/08 01:01:05;;;;;;;;;;;;;;;6.87;78.23;100053.09;5047285;28;19921;-85
2022/01/08 01:03:31;;;;;;;;;;;;;;;6.89;78.50;100051.38;5047890;28;19982;-85
2022/01/08 01:05:56;;;;;;;;;;;;;;;6.93;78.37;100053.13;5037879;28;19916;-85
2022/01/08 01:08:21;;;;;;;;;;;;;;;6.95;78.03;100051.41;5028736;28;20358;-84
2022/01/08 01:10:47;;;;;;;;;;;;;;;6.91;78.39;100049.63;5042467;28;20685;-84
2022/01/08 01:13:12;;;;;;;;;;;;;;;6.87;78.38;100054.84;5046216;28;19975;-84
2022/01/08 01:15:37;;;;;;;;;;;;;;;6.95;78.43;100048.78;5027612;28;19959;-84
2022/01/08 01:18:03;;;;;;;;;;;;;;;6.88;78.54;100048.75;5028783;28;20003;-84
2022/01/08 01:20:28;;;;;;;;;;;;;;;6.77;78.84;100048.69;5028727;28;19979;-84
2022/01/08 01:23:03;;;;;;;;;;;;;;;6.73;79.23;100046.91;5027249;28;19909;-85
2022/01/08 01:25:37;;;;;;;;;;;;;;;6.72;79.57;100040.78;5046788;28;19917;-84
2022/01/08 01:28:17;;;;;;;;;;;;;;;6.77;79.50;100035.56;5044678;28;20272;-84
2022/01/08 01:49:04;;;;;;;;;;;;;;;6.39;81.44;99997.75;5027626;28;20509;-84
2022/01/08 01:51:30;;;;;;;;;;;;;;;6.38;81.51;99996.00;5027679;28;19920;-84
2022/01/08 01:53:55;;;;;;;;;;;;;;;6.36;82.06;99997.72;5033840;28;19912;-84
2022/01/08 01:56:21;;;;;;;;;;;;;;;6.36;82.13;100007.34;5045821;28;19925;-85
2022/01/08 01:58:47;;;;;;;;;;;;;;;6.41;82.36;100001.28;5042006;28;19917;-84
2022/01/08 02:01:12;;;;;;;;;;;;;;;6.35;82.24;100005.56;5027690;28;20379;-85
2022/01/08 02:03:39;;;;;;;;;;;;;;;6.46;81.83;100006.53;5029851;28;19952;-84
2022/01/08 02:06:04;;;;;;;;;;;;;;;6.41;82.26;99997.75;5047711;28;19970;-85
2022/01/08 02:08:30;;;;;;;;;;;;;;;6.27;82.30;100001.16;5047184;28;19912;-84
2022/01/08 02:10:55;;;;;;;;;;;;;;;6.27;82.39;99998.53;5045825;28;19912;-85
2022/01/08 02:13:24;;;;;;;;;;;;;;;6.41;82.38;99992.50;5046349;28;19952;-85
2022/01/08 02:15:52;;;;;;;;;;;;;;;6.35;82.47;99995.09;5031844;28;19959;-84
2022/01/08 02:18:18;;;;;;;;;;;;;;;6.52;81.95;99977.75;5027442;28;19916;-85
2022/01/08 02:20:44;;;;;;;;;;;;;;;6.55;81.38;99974.25;5027209;28;19912;-84
2022/01/08 02:23:09;;;;;;;;;;;;;;;6.55;82.01;99969.91;5029918;28;19924;-84
2022/01/08 02:25:34;;;;;;;;;;;;;;;6.61;81.52;99964.69;5047385;28;20023;-84
2022/01/08 02:28:03;;;;;;;;;;;;;;;6.51;81.45;99967.25;5046024;28;20287;-84
2022/01/08 02:30:28;;;;;;;;;;;;;;;6.63;81.41;99964.69;5033832;28;20016;-84
2022/01/08 02:32:54;;;;;;;;;;;;;;;6.69;81.06;99961.22;5025924;28;19995;-85
2022/01/08 02:35:22;;;;;;;;;;;;;;;6.79;80.46;99950.78;5031487;28;19915;-84
2022/01/08 02:37:47;;;;;;;;;;;;;;;6.82;80.42;99945.56;5046429;28;20328;-84
2022/01/08 02:40:13;;;;;;;;;;;;;;;6.89;80.46;99946.47;5044686;28;19916;-85
2022/01/08 02:42:49;;;;;;;;;;;;;;;6.89;79.35;99954.34;5045404;28;20502;-85
2022/01/08 02:45:15;;;;;;;;;;;;;;;6.79;79.97;99950.78;5026911;28;19913;-85
2022/01/08 02:47:40;;;;;;;;;;;;;;;6.78;80.08;99950.78;5026728;28;19919;-84
2022/01/08 02:50:06;;;;;;;;;;;;;;;6.70;80.37;99949.88;5041552;28;19966;-84
2022/01/08 02:52:32;;;;;;;;;;;;;;;6.60;81.03;99948.97;5045932;28;19947;-85
2022/01/08 02:54:57;;;;;;;;;;;;;;;6.67;80.75;99949.84;5045248;28;20382;-85
2022/01/08 02:57:22;;;;;;;;;;;;;;;6.68;80.33;99949.00;5043747;28;20887;-85
2022/01/08 02:59:48;;;;;;;;;;;;;;;6.86;80.05;99938.59;5045300;28;20003;-85
2022/01/08 03:02:13;;;;;;;;;;;;;;;6.70;80.52;99944.63;5044704;28;19915;-85
2022/01/08 03:04:39;;;;;;;;;;;;;;;6.82;80.23;99942.94;5046053;28;20017;-84
2022/01/08 03:07:04;;;;;;;;;;;;;;;6.77;80.04;99938.56;5045144;28;20752;-85
2022/01/08 03:09:31;;;;;;;;;;;;;;;6.75;80.58;99937.66;5046058;28;20658;-85
2022/01/08 03:11:56;;;;;;;;;;;;;;;6.72;80.37;99941.16;5044996;28;19975;-85
2022/01/08 03:14:22;;;;;;;;;;;;;;;6.76;79.74;99942.03;5046343;28;20033;-84
2022/01/08 03:16:47;;;;;;;;;;;;;;;6.55;80.58;99933.22;5046100;28;20708;-84
2022/01/08 03:19:14;;;;;;;;;;;;;;;6.60;81.08;99936.72;5028473;28;20453;-85
2022/01/08 03:21:43;;;;;;;;;;;;;;;6.28;82.24;99931.28;5026633;28;19916;-85
2022/01/08 03:24:10;;;;;;;;;;;;;;;6.32;82.12;99934.81;5045234;28;19923;-85
2022/01/08 03:26:36;;;;;;;;;;;;;;;6.40;82.18;99931.38;5044287;28;19913;-85
2022/01/08 03:29:02;;;;;;;;;;;;;;;6.58;81.75;99938.47;5046009;28;20761;-85
2022/01/08 03:31:27;;;;;;;;;;;;;;;6.66;81.26;99941.13;5045861;28;19912;-84
2022/01/08 03:33:53;;;;;;;;;;;;;;;6.56;81.31;99934.94;5046206;28;19916;-84
2022/01/08 03:36:19;;;;;;;;;;;;;;;6.48;81.69;99939.28;5045858;28;20383;-84
2022/01/08 03:38:45;;;;;;;;;;;;;;;6.34;82.46;99933.09;5046510;28;20379;-84
2022/01/08 03:41:10;;;;;;;;;;;;;;;6.51;82.10;99943.66;5045812;28;19947;-84
2022/01/08 03:43:36;;;;;;;;;;;;;;;6.59;81.44;99937.56;5043906;28;19970;-85
2022/01/08 03:46:03;;;;;;;;;;;;;;;6.51;81.24;99931.44;5045776;28;19923;-84
2022/01/08 03:48:43;;;;;;;;;;;;;;;6.61;81.83;99942.81;5044733;28;19913;-84
2022/01/08 03:51:09;;;;;;;;;;;;;;;6.58;81.21;99937.56;5048488;28;19912;-84
2022/01/08 03:53:34;;;;;;;;;;;;;;;6.40;82.26;99922.63;5048755;28;19988;-85
2022/01/08 03:55:59;;;;;;;;;;;;;;;6.72;81.82;99927.16;5049750;28;19982;-85
2022/01/08 03:58:25;;;;;;;;;;;;;;;6.57;80.95;99891.28;5049972;28;19919;-84
2022/01/08 04:00:51;;;;;;;;;;;;;;;6.49;81.67;99912.22;5049689;28;19916;-85
2022/01/08 04:03:19;;;;;;;;;;;;;;;6.65;81.28;99917.53;5049456;28;19955;-84
2022/01/08 04:05:46;;;;;;;;;;;;;;;6.71;81.25;99921.03;5049333;28;20400;-85
2022/01/08 04:08:11;;;;;;;;;;;;;;;6.81;80.41;99917.59;5049653;28;19916;-84
2022/01/08 04:10:36;;;;;;;;;;;;;;;6.82;80.47;99919.31;5049365;28;19970;-84
2022/01/08 04:13:09;;;;;;;;;;;;;;;6.89;80.22;99911.47;5049282;28;19909;-85
2022/01/08 04:15:37;;;;;;;;;;;;;;;6.96;79.98;99919.38;5049548;28;19917;-85
2022/01/08 04:18:03;;;;;;;;;;;;;;;6.92;79.75;99919.34;5048882;28;19909;-85
2022/01/08 04:20:28;;;;;;;;;;;;;;;6.87;80.03;99919.34;5049342;28;19966;-85
2022/01/08 04:22:55;;;;;;;;;;;;;;;6.72;80.47;99914.03;5047806;28;19912;-85
2022/01/08 04:25:21;;;;;;;;;;;;;;;6.70;80.47;99907.91;5048818;28;20472;-85
2022/01/08 04:27:47;;;;;;;;;;;;;;;6.79;80.09;99916.69;5032342;28;19913;-85
2022/01/08 04:30:13;;;;;;;;;;;;;;;6.76;80.46;99916.69;5029321;28;20635;-85
2022/01/08 04:32:39;;;;;;;;;;;;;;;6.80;80.43;99912.34;5040825;28;19909;-85
2022/01/08 04:35:05;;;;;;;;;;;;;;;6.82;79.94;99913.22;5033574;28;21038;-84
2022/01/08 04:37:30;;;;;;;;;;;;;;;6.77;80.04;99918.44;5049030;28;20383;-85
2022/01/08 04:39:56;;;;;;;;;;;;;;;6.63;80.69;99918.38;5047449;28;20007;-85
2022/01/08 04:42:21;;;;;;;;;;;;;;;6.70;80.79;99916.66;5049070;28;20011;-85
2022/01/08 04:44:47;;;;;;;;;;;;;;;6.67;81.15;99919.25;5048981;28;20005;-86
2022/01/08 04:47:12;;;;;;;;;;;;;;;6.78;80.34;99916.69;5048099;28;20006;-85
2022/01/08 04:49:38;;;;;;;;;;;;;;;6.62;81.10;99921.00;5048129;28;19923;-86
2022/01/08 04:52:03;;;;;;;;;;;;;;;6.56;81.21;99921.84;5048263;28;20396;-86
2022/01/08 04:54:29;;;;;;;;;;;;;;;6.59;81.19;99919.22;5047701;28;19909;-86
2022/01/08 04:56:54;;;;;;;;;;;;;;;6.52;81.34;99916.56;5046938;28;20389;-85
2022/01/08 04:59:19;;;;;;;;;;;;;;;6.40;82.40;99914.78;5048555;28;20010;-84
2022/01/08 05:01:45;;;;;;;;;;;;;;;6.52;81.97;99914.84;5037685;28;19963;-85
2022/01/08 05:04:10;;;;;;;;;;;;;;;6.70;81.11;99914.03;5048050;28;20314;-84
2022/01/08 05:06:35;;;;;;;;;;;;;;;6.59;81.30;99910.50;5036494;28;19921;-83
2022/01/08 05:09:01;;;;;;;;;;;;;;;6.75;81.49;99909.72;5028238;28;20004;-84
2022/01/08 05:11:29;;;;;;;;;;;;;;;6.85;80.90;99901.88;5028908;28;19963;-84
2022/01/08 05:13:55;;;;;;;;;;;;;;;6.83;80.68;99907.13;5048326;28;19923;-84
2022/01/08 05:16:21;;;;;;;;;;;;;;;6.89;80.36;99901.88;5047881;28;20626;-84
2022/01/08 05:18:49;;;;;;;;;;;;;;;6.99;80.02;99906.28;5047031;28;20710;-84
2022/01/08 05:21:23;;;;;;;;;;;;;;;7.01;80.01;99901.03;5048492;28;20379;-84
2022/01/08 05:23:49;;;;;;;;;;;;;;;6.94;79.89;99902.78;5046444;28;19917;-84
2022/01/08 05:26:15;;;;;;;;;;;;;;;6.99;79.35;99895.78;5045751;28;19931;-84
2022/01/08 05:28:40;;;;;;;;;;;;;;;6.98;80.06;99896.69;5048161;28;19904;-84
2022/01/08 05:31:05;;;;;;;;;;;;;;;7.07;79.70;99900.19;5045850;28;20735;-84
2022/01/08 05:33:31;;;;;;;;;;;;;;;7.03;79.35;99899.31;5047751;28;19923;-84
2022/01/08 05:35:56;;;;;;;;;;;;;;;7.11;79.28;99899.31;5037252;28;19919;-84
2022/01/08 05:38:21;;;;;;;;;;;;;;;7.03;79.30;99888.81;5048360;28;19970;-84
2022/01/08 05:40:47;;;;;;;;;;;;;;;7.12;79.63;99893.19;5046822;28;19917;-84
2022/01/08 05:43:13;;;;;;;;;;;;;;;7.06;79.48;99891.44;5045206;28;19917;-84
2022/01/08 05:45:38;;;;;;;;;;;;;;;7.12;79.38;99891.47;5047233;28;19913;-84
2022/01/08 05:48:05;;;;;;;;;;;;;;;7.01;79.36;99887.06;5047158;28;19966;-84
2022/01/08 05:50:30;;;;;;;;;;;;;;;7.01;79.79;99892.28;5046992;28;19919;-84
2022/01/08 05:52:55;;;;;;;;;;;;;;;7.12;79.51;99901.97;5045502;28;20699;-83
2022/01/08 05:55:21;;;;;;;;;;;;;;;7.03;79.52;99901.03;5047125;28;20718;-84
2022/01/08 05:57:46;;;;;;;;;;;;;;;7.10;79.38;99901.06;5046078;28;20434;-84
2022/01/08 06:00:11;;;;;;;;;;;;;;;7.12;79.18;99896.72;5046671;28;19916;-84
2022/01/08 06:02:37;;;;;;;;;;;;;;;7.13;79.03;99900.19;5032888;28;19917;-84
2022/01/08 06:05:05;;;;;;;;;;;;;;;7.20;79.00;99904.59;5045993;28;19930;-84
2022/01/08 06:07:31;;;;;;;;;;;;;;;7.09;78.93;99907.19;5046491;28;19924;-83
2022/01/08 06:09:56;;;;;;;;;;;;;;;7.14;79.05;99907.22;5046608;28;19913;-83
2022/01/08 06:12:21;;;;;;;;;;;;;;;7.10;79.03;99908.06;5046301;28;20414;-83
2022/01/08 06:14:47;;;;;;;;;;;;;;;7.09;79.26;99907.19;5046038;28;19909;-83
2022/01/08 06:17:12;;;;;;;;;;;;;;;7.05;79.46;99904.56;5047268;28;19909;-82
2022/01/08 06:19:38;;;;;;;;;;;;;;;7.10;79.01;99910.69;5045964;28;19914;-83
2022/01/08 06:22:03;;;;;;;;;;;;;;;7.10;78.79;99908.91;5046098;28;19912;-83
2022/01/08 06:24:29;;;;;;;;;;;;;;;7.16;79.06;99908.06;5026367;28;19967;-83
2022/01/08 06:26:54;;;;;;;;;;;;;;;7.23;78.83;99907.22;5032571;28;19959;-82
2022/01/08 06:29:19;;;;;;;;;;;;;;;7.24;78.89;99908.94;5045722;28;19912;-83
2022/01/08 06:31:45;;;;;;;;;;;;;;;7.30;78.08;99908.97;5045096;28;19921;-83
2022/01/08 06:34:10;;;;;;;;;;;;;;;7.12;78.98;99914.19;5045145;28;19917;-83
2022/01/08 06:36:36;;;;;;;;;;;;;;;7.24;78.75;99908.09;5045818;28;20504;-83
2022/01/08 06:39:01;;;;;;;;;;;;;;;7.26;79.07;99904.59;5047061;28;19913;-84
2022/01/08 06:41:29;;;;;;;;;;;;;;;7.23;79.03;99911.56;5044538;28;19936;-86
2022/01/08 06:43:54;;;;;;;;;;;;;;;7.14;79.41;99912.44;5046757;28;19983;-83
2022/01/08 06:46:19;;;;;;;;;;;;;;;7.22;78.67;99912.47;5047120;28;19955;-84
2022/01/08 06:48:45;;;;;;;;;;;;;;;7.21;79.54;99908.09;5046155;28;19916;-84
2022/01/08 06:51:10;;;;;;;;;;;;;;;7.12;79.26;99890.56;5044204;28;19913;-84
2022/01/08 06:53:35;;;;;;;;;;;;;;;7.19;79.87;99909.84;5046127;28;19916;-84
2022/01/08 06:56:01;;;;;;;;;;;;;;;7.19;79.50;99910.69;5045671;28;20007;-84
2022/01/08 06:58:27;;;;;;;;;;;;;;;7.22;79.71;99909.84;5046664;28;20355;-84
2022/01/08 07:00:52;;;;;;;;;;;;;;;7.22;80.09;99907.22;5046206;28;20382;-84
2022/01/08 07:03:17;;;;;;;;;;;;;;;7.24;79.53;99902.84;5046033;28;19920;-85
2022/01/08 07:05:43;;;;;;;;;;;;;;;7.29;79.58;99903.72;5046076;28;19962;-85
2022/01/08 07:08:10;;;;;;;;;;;;;;;7.25;80.11;99904.59;5046561;28;19970;-85
2022/01/08 07:10:35;;;;;;;;;;;;;;;7.12;80.24;99904.56;5046515;28;19979;-86
2022/01/08 07:13:01;;;;;;;;;;;;;;;7.25;80.35;99902.84;5046550;28;19919;-85
2022/01/08 07:15:26;;;;;;;;;;;;;;;7.31;79.81;99907.25;5046451;28;19985;-87
2022/01/08 07:17:51;;;;;;;;;;;;;;;7.32;80.16;99896.75;5045280;28;20396;-86
2022/01/08 07:20:17;;;;;;;;;;;;;;;7.31;79.83;99908.09;5046162;28;19933;-86
2022/01/08 07:22:42;;;;;;;;;;;;;;;7.35;80.01;99899.38;5042553;28;20074;-87
2022/01/08 07:25:08;;;;;;;;;;;;;;;7.32;79.60;99901.09;5046140;28;19912;-86
2022/01/08 07:27:33;;;;;;;;;;;;;;;7.33;80.07;99903.72;5049710;28;19913;-87
2022/01/08 07:29:59;;;;;;;;;;;;;;;7.25;80.21;99899.34;5049627;28;19913;-85
2022/01/08 07:32:25;;;;;;;;;;;;;;;7.26;79.71;99901.97;5048638;28;19916;-86
2022/01/08 07:34:50;;;;;;;;;;;;;;;7.30;80.40;99889.72;5048130;28;19922;-86
2022/01/08 07:37:15;;;;;;;;;;;;;;;7.39;80.30;99895.00;5047125;28;19912;-87
2022/01/08 07:39:41;;;;;;;;;;;;;;;7.30;80.59;99889.72;5047085;28;20011;-85
2022/01/08 07:42:06;;;;;;;;;;;;;;;7.38;80.00;99892.38;5047823;28;20023;-87
2022/01/08 07:44:31;;;;;;;;;;;;;;;7.62;79.03;99896.78;5048428;28;19920;-88
2022/01/08 07:46:57;;;;;;;;;;;;;;;7.62;79.44;99892.38;5048801;28;19939;-89
2022/01/08 07:49:22;;;;;;;;;;;;;;;7.26;79.75;99895.84;5046592;28;20058;-87
2022/01/08 07:51:49;;;;;;;;;;;;;;;7.39;80.00;99895.00;5046798;28;19927;-91
2022/01/08 07:54:14;;;;;;;;;;;;;;;7.37;80.22;99899.38;5046809;28;19917;-86
2022/01/08 07:56:40;;;;;;;;;;;;;;;7.46;79.74;99886.25;5046684;28;20255;-86
2022/01/08 07:59:05;;;;;;;;;;;;;;;7.51;79.30;99889.75;5047295;28;19935;-85
2022/01/08 08:01:30;;;;;;;;;;;;;;;7.42;79.52;99888.88;5046279;28;19952;-86
2022/01/08 08:03:56;;;;;;;;;;;;;;;7.37;79.62;99890.59;5046154;28;19920;-86
2022/01/08 08:06:21;;;;;;;;;;;;;;;7.44;79.23;99884.50;5047540;28;19920;-83
2022/01/08 08:08:46;;;;;;;;;;;;;;;7.48;79.51;99888.88;5047042;28;19916;-83
2022/01/08 08:11:12;;;;;;;;;;;;;;;7.34;80.47;99883.63;5046941;28;19913;-81
2022/01/08 08:13:37;;;;;;;;;;;;;;;7.41;80.24;99892.38;5048345;28;19919;-82
2022/01/08 08:16:03;;;;;;;;;;;;;;;7.51;79.66;99884.50;5049629;28;19913;-83
2022/01/08 08:18:28;;;;;;;;;;;;;;;7.53;79.55;99888.00;5048897;28;20438;-82
2022/01/08 08:20:53;;;;;;;;;;;;;;;7.48;79.38;99884.50;5049529;28;19920;-83
2022/01/08 08:23:19;;;;;;;;;;;;;;;7.51;79.91;99879.25;5048686;28;20421;-82
2022/01/08 08:25:44;;;;;;;;;;;;;;;7.64;79.63;99885.38;5045180;28;19913;-82
2022/01/08 08:28:09;;;;;;;;;;;;;;;7.67;78.81;99876.63;5048066;28;20274;-83
2022/01/08 08:30:35;;;;;;;;;;;;;;;7.53;79.28;99877.50;5049213;28;20317;-83
2022/01/08 08:33:01;;;;;;;;;;;;;;;7.29;80.31;99874.84;5049148;28;19932;-82
2022/01/08 08:35:26;;;;;;;;;;;;;;;7.43;80.47;99877.50;5047570;28;19920;-83
2022/01/08 08:37:51;;;;;;;;;;;;;;;7.64;80.02;99874.88;5048666;28;19936;-83
2022/01/08 08:40:17;;;;;;;;;;;;;;;7.78;79.32;99861.72;5048988;28;19935;-83
2022/01/08 08:42:42;;;;;;;;;;;;;;;7.85;79.68;99862.63;5048561;28;19917;-83
2022/01/08 08:45:09;;;;;;;;;;;;;;;7.74;78.60;99867.00;5048741;28;19908;-87
2022/01/08 08:47:34;;;;;;;;;;;;;;;7.73;79.81;99862.63;5046620;28;19917;-88
2022/01/08 08:50:00;;;;;;;;;;;;;;;7.92;79.31;99855.59;5048523;28;19919;-84
2022/01/08 08:52:26;;;;;;;;;;;;;;;7.98;78.45;99855.59;5046288;28;19931;-84
2022/01/08 08:54:51;;;;;;;;;;;;;;;7.83;78.91;99846.88;5041206;28;20601;-84
2022/01/08 08:57:17;;;;;;;;;;;;;;;7.95;78.61;99837.22;5028004;28;19928;-85
2022/01/08 08:59:42;;;;;;;;;;;;;;;7.88;78.81;99842.47;5028853;28;19919;-84
2022/01/08 09:02:08;;;;;;;;;;;;;;;8.00;78.96;99841.59;5033205;28;20458;-83
2022/01/08 09:04:34;;;;;;;;;;;;;;;8.14;78.27;99838.03;5047993;28;20021;-84
2022/01/08 09:06:59;;;;;;;;;;;;;;;8.14;77.69;99830.13;5048074;28;20716;-84
2022/01/08 09:09:25;;;;;;;;;;;;;;;8.01;78.42;99835.44;5048590;28;19944;-82
2022/01/08 09:11:50;;;;;;;;;;;;;;;8.17;78.17;99817.88;5047501;28;20004;-81
2022/01/08 09:14:15;;;;;;;;;;;;;;;7.95;78.09;99817.06;5046860;28;19913;-82
2022/01/08 09:16:45;;;;;;;;;;;;;;;7.85;78.47;99820.59;5044223;28;19904;-83
2022/01/08 09:19:10;;;;;;;;;;;;;;;7.66;79.83;99810.13;5045415;28;19947;-83
2022/01/08 09:21:36;;;;;;;;;;;;;;;7.69;79.48;99804.88;5046188;28;19913;-83
2022/01/08 09:24:01;;;;;;;;;;;;;;;7.76;79.38;99803.09;5045328;28;19920;-85
2022/01/08 09:26:26;;;;;;;;;;;;;;;7.82;79.84;99797.84;5045961;28;19916;-83
2022/01/08 09:28:51;;;;;;;;;;;;;;;8.04;79.42;99797.78;5047041;28;19976;-84
2022/01/08 09:31:18;;;;;;;;;;;;;;;7.83;79.44;99789.09;5046901;28;19920;-84
2022/01/08 09:33:43;;;;;;;;;;;;;;;7.92;79.66;99789.94;5046819;28;20375;-84
2022/01/08 09:36:09;;;;;;;;;;;;;;;8.15;79.31;99779.34;5047700;28;19929;-84
2022/01/08 09:38:34;;;;;;;;;;;;;;;8.05;78.83;99781.16;5046613;28;20256;-84
2022/01/08 09:41:00;;;;;;;;;;;;;;;8.01;79.49;99776.78;5046953;28;19998;-84
2022/01/08 09:43:26;;;;;;;;;;;;;;;7.90;79.08;99771.53;5047466;28;19916;-84
2022/01/08 09:45:51;;;;;;;;;;;;;;;8.03;79.11;99762.75;5044764;28;20749;-85
2022/01/08 09:48:17;;;;;;;;;;;;;;;8.16;78.43;99760.94;5045875;28;20051;-83
2022/01/08 09:50:43;;;;;;;;;;;;;;;8.31;78.10;99754.75;5045772;28;19928;-85
2022/01/08 09:53:09;;;;;;;;;;;;;;;8.32;78.40;99751.22;5045216;28;19917;-84
2022/01/08 09:55:34;;;;;;;;;;;;;;;8.49;78.01;99745.91;5045447;28;20268;-82
2022/01/08 09:57:59;;;;;;;;;;;;;;;8.66;77.09;99735.28;5044530;28;19920;-83
2022/01/08 10:00:25;;;;;;;;;;;;;;;8.62;77.10;99733.59;5046834;28;20328;-83
2022/01/08 10:02:51;;;;;;;;;;;;;;;8.74;77.57;99725.63;5044842;28;19912;-83
2022/01/08 10:05:17;;;;;;;;;;;;;;;8.78;77.03;99719.44;5046588;28;20022;-82
2022/01/08 10:07:43;;;;;;;;;;;;;;;8.67;77.35;99723.91;5045301;28;19917;-84
2022/01/08 10:10:12;;;;;;;;;;;;;;;8.78;77.47;99715.94;5047031;28;19912;-82
2022/01/08 10:12:41;;;;;;;;;;;;;;;8.89;76.89;99710.59;5045338;28;19923;-82
2022/01/08 10:17:51;;;;;;;;;;;;;;;9.00;76.77;99710.50;5044254;28;19919;-83
2022/01/08 10:20:27;;;;;;;;;;;;;;;8.88;75.12;99704.47;5046319;28;19912;-83
2022/01/08 10:23:13;;;;;;;;;;;;;;;8.74;76.09;99703.69;5046308;28;20040;-83
2022/01/08 10:25:55;;;;;;;;;;;;;;;8.91;76.26;99695.66;5045175;28;20397;-83
2022/01/08 10:28:39;;;;;;;;;;;;;;;9.02;75.56;99688.56;5046064;28;19909;-83
2022/01/08 10:31:23;;;;;;;;;;;;;;;8.92;75.46;99687.75;5046507;28;19970;-84
2022/01/08 10:33:50;;;;;;;;;;;;;;;8.92;76.84;99686.91;5044688;28;20291;-82
2022/01/08 10:36:26;;;;;;;;;;;;;;;8.93;76.29;99686.88;5045629;28;19955;-83
2022/01/08 10:38:55;;;;;;;;;;;;;;;9.05;75.63;99683.28;5045201;28;19919;-83
2022/01/08 10:41:22;;;;;;;;;;;;;;;8.81;76.00;99678.22;5046082;28;19923;-84
2022/01/08 10:43:47;;;;;;;;;;;;;;;8.90;75.34;99683.41;5042989;28;20012;-83
2022/01/08 10:46:17;;;;;;;;;;;;;;;8.96;75.26;99678.09;5026152;28;20019;-82
2022/01/08 10:48:48;;;;;;;;;;;;;;;9.06;76.65;99676.25;5025305;28;19925;-83
2022/01/08 10:51:13;;;;;;;;;;;;;;;9.08;75.48;99674.47;5028947;28;20288;-84
2022/01/08 10:53:59;;;;;;;;;;;;;;;9.14;75.27;99669.16;5043734;28;19931;-82
2022/01/08 10:56:24;;;;;;;;;;;;;;;9.12;74.45;99666.53;5045521;28;19934;-82
2022/01/08 10:58:52;;;;;;;;;;;;;;;9.02;75.39;99664.00;5043348;28;20031;-80
2022/01/08 11:01:36;;;;;;;;;;;;;;;8.98;75.58;99647.38;5045542;28;20511;-81
2022/01/08 11:04:02;;;;;;;;;;;;;;;8.94;75.62;99645.66;5045485;28;20458;-82
2022/01/08 11:06:27;;;;;;;;;;;;;;;8.73;75.66;99644.97;5045539;28;20027;-81
2022/01/08 11:09:02;;;;;;;;;;;;;;;8.84;76.60;99641.38;5045284;28;19975;-80
2022/01/08 11:11:30;;;;;;;;;;;;;;;8.77;76.41;99635.28;5045493;28;19909;-82
2022/01/08 11:14:04;;;;;;;;;;;;;;;8.81;76.97;99633.50;5042085;28;19920;-80
2022/01/08 11:16:30;;;;;;;;;;;;;;;8.44;77.28;99623.28;5043384;28;19960;-80
2022/01/08 11:18:57;;;;;;;;;;;;;;;8.41;77.53;99630.25;5045039;28;19971;-80
2022/01/08 11:21:23;;;;;;;;;;;;;;;8.57;78.93;99628.44;5041929;28;19916;-81
2022/01/08 11:23:49;;;;;;;;;;;;;;;8.55;78.24;99626.69;5040291;28;19968;-81
2022/01/08 11:26:15;;;;;;;;;;;;;;;8.44;77.85;99624.16;5043035;28;20497;-82
2022/01/08 11:28:46;;;;;;;;;;;;;;;8.29;78.06;99625.09;5045659;28;20431;-80
2022/01/08 11:31:15;;;;;;;;;;;;;;;8.46;78.09;99618.88;5043954;28;19923;-82
2022/01/08 11:33:44;;;;;;;;;;;;;;;8.38;78.08;99621.53;5037919;28;19970;-82
2022/01/08 11:36:11;;;;;;;;;;;;;;;8.16;78.97;99618.19;5040983;28;20006;-83
2022/01/08 11:38:36;;;;;;;;;;;;;;;8.30;78.78;99608.44;5043869;28;20134;-81
2022/01/08 11:41:02;;;;;;;;;;;;;;;8.26;78.87;99604.09;5042038;28;20389;-81
2022/01/08 11:43:28;;;;;;;;;;;;;;;8.32;79.08;99606.66;5043584;28;19939;-81
2022/01/08 11:46:02;;;;;;;;;;;;;;;8.20;79.00;99609.38;5041813;28;19948;-82
2022/01/08 11:48:33;;;;;;;;;;;;;;;8.40;78.68;99599.63;5042306;28;19916;-82
2022/01/08 11:51:00;;;;;;;;;;;;;;;8.58;78.26;99605.66;5043049;28;19923;-82
2022/01/08 11:53:26;;;;;;;;;;;;;;;8.63;78.15;99593.31;5041038;28;19923;-82
2022/01/08 11:55:59;;;;;;;;;;;;;;;8.51;77.50;99596.06;5045091;28;19920;-81
2022/01/08 11:58:35;;;;;;;;;;;;;;;8.65;77.99;99595.94;5037490;28;19925;-82
2022/01/08 12:01:00;;;;;;;;;;;;;;;8.76;77.79;99597.59;5045322;28;19940;-81
2022/01/08 12:03:49;;;;;;;;;;;;;;;8.85;78.05;99596.66;5045381;28;20014;-81
2022/01/08 12:09:07;;;;;;;;;;;;;;;8.96;77.25;99583.38;5045069;28;20018;-81
2022/01/08 12:11:33;;;;;;;;;;;;;;;8.90;76.34;99578.19;5046632;28;19912;-82
2022/01/08 12:14:12;;;;;;;;;;;;;;;8.75;76.84;99568.69;5045840;28;19917;-81
2022/01/08 12:16:41;;;;;;;;;;;;;;;8.70;77.55;99568.72;5047698;28;19955;-81
2022/01/08 12:19:08;;;;;;;;;;;;;;;8.79;77.12;99570.41;5049084;28;19908;-81
2022/01/08 12:21:33;;;;;;;;;;;;;;;8.81;77.77;99567.75;5048955;28;19913;-81
2022/01/08 12:24:01;;;;;;;;;;;;;;;8.85;77.45;99557.19;5049063;28;19920;-81
2022/01/08 12:26:26;;;;;;;;;;;;;;;8.69;78.15;99556.44;5049129;28;19935;-82
2022/01/08 12:28:53;;;;;;;;;;;;;;;8.68;78.89;99553.84;5048258;28;20392;-82
2022/01/08 12:31:41;;;;;;;;;;;;;;;8.77;78.84;99551.13;5048189;28;20626;-82
2022/01/08 12:34:21;;;;;;;;;;;;;;;8.71;79.06;99551.19;5048536;28;19950;-81
2022/01/08 12:36:56;;;;;;;;;;;;;;;8.75;78.85;99558.16;5048181;28;20011;-81
2022/01/08 12:39:26;;;;;;;;;;;;;;;8.84;78.39;99555.44;5048533;28;19921;-81
2022/01/08 12:42:10;;;;;;;;;;;;;;;9.01;77.63;99552.63;5048664;28;20302;-83
2022/01/08 12:44:35;;;;;;;;;;;;;;;8.73;77.82;99552.91;5048188;28;19916;-83
2022/01/08 12:47:00;;;;;;;;;;;;;;;8.69;78.72;99545.94;5048079;28;19917;-83
2022/01/08 12:49:26;;;;;;;;;;;;;;;8.60;78.82;99546.00;5047784;28;19917;-83
2022/01/08 12:51:51;;;;;;;;;;;;;;;8.69;79.30;99543.31;5048592;28;19939;-83
2022/01/08 12:54:18;;;;;;;;;;;;;;;8.63;79.39;99545.13;5046637;28;19913;-83
2022/01/08 12:56:56;;;;;;;;;;;;;;;8.80;79.00;99540.56;5048027;28;19908;-83
2022/01/08 12:59:28;;;;;;;;;;;;;;;8.83;79.41;99537.03;5047798;28;19908;-83
2022/01/08 13:01:53;;;;;;;;;;;;;;;8.76;79.13;99537.09;5045709;28;19931;-84
2022/01/08 13:04:22;;;;;;;;;;;;;;;8.74;79.17;99543.25;5045832;28;19976;-83
2022/01/08 13:06:47;;;;;;;;;;;;;;;8.84;78.79;99539.66;5047635;28;20644;-83
2022/01/08 13:09:13;;;;;;;;;;;;;;;8.75;79.53;99537.13;5046932;28;19916;-83
2022/01/08 13:11:40;;;;;;;;;;;;;;;8.59;78.74;99539.91;5047322;28;19912;-83
2022/01/08 13:14:06;;;;;;;;;;;;;;;8.54;80.14;99540.81;5045906;28;20511;-83
2022/01/08 13:16:39;;;;;;;;;;;;;;;8.82;79.10;99537.91;5042786;28;19915;-82